Time;durP1;ratioP1;P1;durP2;ratioP2;P2;SDS_P1;SDS_P2;PMS_P1;PMS_P2;Temp;Humidity;BMP_temperature;BMP_pressure;BME280_temperature;BME280_humidity;BME280_pressure;Samples;Min_cycle;Max_cycle;Signal;HPM_P1;HPM_P2
2022/05/23 00:01:27;;;;;;;3.13;0.90;;;22.10;55.60;;;;;;5082148;28;20513;-43
2022/05/23 00:03:53;;;;;;;2.65;0.88;;;22.10;56.10;;;;;;5108989;28;20074;-43
2022/05/23 00:06:20;;;;;;;2.00;1.00;;;22.10;55.60;;;;;;5101371;28;20087;-43
2022/05/23 00:08:46;;;;;;;2.25;0.90;;;22.00;55.60;;;;;;5092793;28;20042;-43
2022/05/23 00:11:12;;;;;;;1.88;0.70;;;22.00;55.50;;;;;;5105922;28;20157;-43
2022/05/23 00:13:39;;;;;;;1.98;0.80;;;22.00;55.80;;;;;;5107243;28;20034;-43
2022/05/23 00:16:05;;;;;;;4.43;1.13;;;22.00;55.50;;;;;;5119858;28;20036;-43
2022/05/23 00:18:31;;;;;;;2.80;1.10;;;22.00;55.50;;;;;;5126486;28;20095;-43
2022/05/23 00:20:57;;;;;;;4.68;0.90;;;22.00;55.30;;;;;;5113517;28;20031;-43
2022/05/23 00:23:23;;;;;;;2.47;0.90;;;22.00;55.50;;;;;;5105614;28;20066;-43
2022/05/23 00:25:50;;;;;;;1.45;0.85;;;21.90;55.60;;;;;;5100263;28;20429;-43
2022/05/23 00:28:16;;;;;;;2.28;0.60;;;21.90;57.60;;;;;;5105656;28;20039;-43
2022/05/23 00:30:42;;;;;;;1.30;0.70;;;21.90;58.20;;;;;;5091300;28;20028;-43
2022/05/23 00:35:54;;;;;;;1.95;0.93;;;21.90;58.60;;;;;;5104825;28;20101;-43
2022/05/23 00:38:21;;;;;;;2.70;0.68;;;21.90;58.30;;;;;;5105688;28;20028;-43
2022/05/23 00:44:02;;;;;;;4.15;0.80;;;21.90;57.30;;;;;;5122449;28;20051;-43
2022/05/23 00:46:28;;;;;;;2.05;0.98;;;21.90;58.30;;;;;;5126269;28;20039;-42
2022/05/23 00:48:57;;;;;;;1.67;0.60;;;21.90;58.50;;;;;;5118958;28;20027;-43
2022/05/23 00:51:23;;;;;;;2.22;0.60;;;21.90;58.60;;;;;;5107272;28;20028;-43
2022/05/23 00:53:54;;;;;;;1.05;0.63;;;21.90;58.60;;;;;;5114391;28;20108;-43
2022/05/23 00:56:22;;;;;;;1.80;0.65;;;21.90;58.50;;;;;;5105253;28;20099;-43
2022/05/23 00:58:52;;;;;;;1.13;0.50;;;21.90;58.30;;;;;;5096583;28;20046;-43
2022/05/23 01:01:24;;;;;;;2.90;0.70;;;21.90;58.00;;;;;;5067379;28;20084;-43
2022/05/23 01:03:50;;;;;;;2.00;0.80;;;21.90;58.10;;;;;;5086702;28;20092;-43
2022/05/23 01:06:16;;;;;;;1.20;0.60;;;21.90;58.30;;;;;;5105326;28;20083;-43
2022/05/23 01:08:42;;;;;;;2.53;0.60;;;21.90;58.40;;;;;;5097250;28;20024;-43
2022/05/23 01:11:09;;;;;;;1.73;0.68;;;22.00;58.40;;;;;;5098464;28;20122;-43
2022/05/23 01:13:35;;;;;;;0.80;0.60;;;22.00;58.30;;;;;;5101701;28;20032;-43
2022/05/23 01:16:01;;;;;;;1.97;0.53;;;22.00;58.30;;;;;;5101282;28;20032;-43
2022/05/23 01:18:27;;;;;;;1.52;0.47;;;22.00;57.80;;;;;;5124467;28;20081;-43
2022/05/23 01:20:56;;;;;;;1.23;0.57;;;22.00;57.50;;;;;;5125542;28;20027;-43
2022/05/23 01:23:59;;;;;;;1.13;0.60;;;22.00;57.40;;;;;;5108636;28;20036;-43
2022/05/23 01:26:25;;;;;;;1.88;0.75;;;22.00;57.70;;;;;;5084764;28;20114;-42
2022/05/23 01:28:51;;;;;;;1.67;0.70;;;22.00;57.80;;;;;;5100258;28;20386;-43
2022/05/23 01:31:18;;;;;;;1.25;0.60;;;22.00;57.80;;;;;;5101796;28;20028;-43
2022/05/23 01:33:44;;;;;;;2.38;0.63;;;22.00;57.80;;;;;;5104314;28;20651;-43
2022/05/23 01:36:14;;;;;;;0.98;0.50;;;22.00;57.70;;;;;;5104829;28;20111;-44
2022/05/23 01:38:40;;;;;;;1.67;0.68;;;22.00;57.70;;;;;;5102523;28;20036;-43
2022/05/23 01:41:06;;;;;;;1.38;0.68;;;22.00;57.60;;;;;;5114216;28;20900;-43
2022/05/23 01:43:33;;;;;;;1.97;0.50;;;22.00;58.10;;;;;;5105230;28;20058;-43
2022/05/23 01:45:59;;;;;;;1.38;0.55;;;22.10;57.50;;;;;;5083688;28;20028;-43
2022/05/23 01:48:25;;;;;;;1.27;0.55;;;22.10;57.40;;;;;;5109040;28;20043;-43
2022/05/23 01:50:52;;;;;;;2.42;0.63;;;22.10;57.40;;;;;;5124895;28;20024;-43
2022/05/23 01:53:18;;;;;;;2.28;0.47;;;22.10;57.30;;;;;;5104120;28;20042;-43
2022/05/23 01:55:44;;;;;;;1.15;0.50;;;22.10;57.20;;;;;;5104193;28;20035;-43
2022/05/23 01:58:10;;;;;;;1.88;0.40;;;22.10;57.20;;;;;;5107456;28;20044;-43
2022/05/23 02:03:22;;;;;;;1.27;0.40;;;22.10;57.20;;;;;;5084496;28;20067;-43
2022/05/23 02:05:48;;;;;;;1.38;0.40;;;22.10;57.10;;;;;;5092033;28;20036;-43
2022/05/23 02:08:14;;;;;;;1.10;0.40;;;22.20;57.40;;;;;;5104241;28;20028;-43
2022/05/23 02:10:40;;;;;;;0.80;0.38;;;22.20;57.20;;;;;;5099971;28;20041;-43
2022/05/23 02:13:07;;;;;;;1.25;0.45;;;22.20;57.10;;;;;;5086374;28;20052;-43
2022/05/23 02:15:33;;;;;;;1.02;0.40;;;22.20;56.90;;;;;;5099568;28;20544;-43
2022/05/23 02:18:00;;;;;;;1.33;0.50;;;22.20;56.80;;;;;;5101504;28;20869;-43
2022/05/23 02:20:27;;;;;;;1.55;0.43;;;22.20;56.70;;;;;;5078582;28;20053;-43
2022/05/23 02:22:53;;;;;;;1.55;0.70;;;22.20;56.70;;;;;;5099994;28;20039;-46
2022/05/23 02:25:19;;;;;;;2.85;0.50;;;22.20;56.60;;;;;;5096598;28;20028;-51
2022/05/23 02:27:46;;;;;;;8.02;0.60;;;22.20;56.70;;;;;;5095820;28;20669;-45
2022/05/23 02:30:12;;;;;;;4.87;0.47;;;22.30;57.10;;;;;;5099620;28;20051;-47
2022/05/23 02:32:38;;;;;;;7.07;0.73;;;22.30;57.30;;;;;;5091536;28;20032;-45
2022/05/23 02:35:07;;;;;;;8.88;0.70;;;22.30;57.30;;;;;;5090343;28;20108;-49
2022/05/23 02:37:33;;;;;;;3.45;0.50;;;22.40;57.30;;;;;;5100392;28;20066;-50
2022/05/23 02:39:59;;;;;;;3.33;0.50;;;22.40;57.50;;;;;;5103438;28;20020;-54
2022/05/23 02:42:25;;;;;;;3.25;0.47;;;22.40;57.40;;;;;;5099331;28;20032;-47
2022/05/23 02:44:51;;;;;;;2.75;0.63;;;22.40;57.40;;;;;;5101391;28;20028;-47
2022/05/23 02:47:17;;;;;;;5.00;0.40;;;22.40;57.40;;;;;;5101747;28;20032;-45
2022/05/23 02:49:43;;;;;;;5.32;0.52;;;22.50;57.40;;;;;;5114615;28;20066;-40
2022/05/23 02:52:09;;;;;;;4.30;0.75;;;22.50;57.00;;;;;;5098146;28;20073;-40
2022/05/23 02:54:36;;;;;;;2.42;0.50;;;22.50;56.60;;;;;;5107687;28;20028;-41
2022/05/23 02:57:02;;;;;;;2.85;0.47;;;22.50;56.40;;;;;;5090153;28;20093;-42
2022/05/23 02:59:28;;;;;;;5.95;0.80;;;22.50;56.20;;;;;;5098055;28;20048;-39
2022/05/23 03:04:39;;;;;;;2.55;0.68;;;22.60;56.40;;;;;;5099153;28;20835;-37
2022/05/23 03:07:05;;;;;;;2.30;0.60;;;22.60;56.60;;;;;;5086060;28;20052;-40
2022/05/23 03:09:32;;;;;;;419.27;151.32;;;22.60;56.70;;;;;;5087719;28;20813;-35
2022/05/23 03:11:59;;;;;;;47.30;16.50;;;22.70;57.10;;;;;;5088538;28;20036;-37
2022/05/23 03:14:29;;;;;;;28.90;8.40;;;22.70;56.90;;;;;;5098913;28;20044;-44
2022/05/23 03:17:02;;;;;;;27.45;8.07;;;22.70;56.90;;;;;;5088596;28;20101;-44
2022/05/23 03:19:29;;;;;;;30.08;7.90;;;22.70;56.80;;;;;;5100214;27;20059;-45
2022/05/23 03:27:27;;;;;;;21.33;6.82;;;22.80;56.80;;;;;;5093251;28;20102;-46
2022/05/23 03:29:53;;;;;;;18.10;6.18;;;22.80;56.70;;;;;;5090264;28;20054;-46
2022/05/23 03:32:20;;;;;;;12.45;4.57;;;22.90;56.40;;;;;;5096376;28;20028;-46
2022/05/23 03:34:47;;;;;;;8.50;3.30;;;22.90;55.80;;;;;;5092130;28;20035;-47
2022/05/23 03:37:13;;;;;;;8.07;3.33;;;22.90;55.50;;;;;;5084736;28;20079;-46
2022/05/23 03:39:39;;;;;;;9.80;3.33;;;22.90;55.40;;;;;;5104497;28;20036;-47
2022/05/23 03:42:06;;;;;;;8.30;3.28;;;22.90;55.40;;;;;;5093628;28;20086;-45
2022/05/23 03:44:34;;;;;;;9.45;3.08;;;22.90;55.40;;;;;;5090256;28;20048;-47
2022/05/23 03:47:00;;;;;;;6.97;2.85;;;22.90;55.50;;;;;;5094101;28;20068;-47
2022/05/23 03:49:27;;;;;;;7.82;2.80;;;23.00;55.60;;;;;;5086715;28;20028;-46
2022/05/23 03:51:54;;;;;;;;;;;23.00;55.60;;;;;;5092162;28;20031;-47
2022/05/23 03:54:20;;;;;;;8.93;3.38;;;23.00;55.60;;;;;;5087327;28;20648;-46
2022/05/23 03:56:46;;;;;;;8.13;3.17;;;23.00;55.70;;;;;;5092711;28;20059;-46
2022/05/23 03:59:14;;;;;;;5.43;2.78;;;23.10;55.70;;;;;;5090495;28;20068;-47
2022/05/23 04:01:40;;;;;;;8.45;2.85;;;23.10;55.70;;;;;;5089163;28;20028;-46
2022/05/23 04:04:06;;;;;;;5.60;2.88;;;23.10;55.70;;;;;;5088877;28;20493;-46
2022/05/23 04:06:35;;;;;;;8.15;2.83;;;23.10;55.80;;;;;;5091483;28;20111;-45
2022/05/23 04:09:01;;;;;;;5.80;2.42;;;23.10;55.80;;;;;;5089665;28;20401;-46
2022/05/23 04:11:27;;;;;;;6.80;2.10;;;23.20;55.70;;;;;;5089081;28;20028;-48
2022/05/23 04:13:53;;;;;;;5.70;1.95;;;23.20;55.20;;;;;;5091256;28;20024;-48
2022/05/23 04:16:19;;;;;;;5.28;1.85;;;23.20;54.80;;;;;;5086177;28;20028;-48
2022/05/23 04:18:45;;;;;;;5.63;1.73;;;23.10;54.70;;;;;;5087451;28;20028;-47
2022/05/23 04:21:12;;;;;;;6.82;1.90;;;23.10;54.80;;;;;;5090658;28;20029;-47
2022/05/23 04:23:38;;;;;;;3.92;1.55;;;23.10;54.90;;;;;;5089892;28;20079;-47
2022/05/23 04:26:08;;;;;;;4.32;1.77;;;23.10;54.90;;;;;;5085902;28;20145;-47
2022/05/23 04:28:36;;;;;;;4.82;1.88;;;23.10;55.00;;;;;;5090037;28;20035;-46
2022/05/23 04:31:02;;;;;;;3.45;1.50;;;23.10;55.00;;;;;;5085598;28;20051;-47
2022/05/23 04:36:13;;;;;;;3.08;1.30;;;23.20;54.80;;;;;;5086556;28;20096;-47
2022/05/23 04:38:39;;;;;;;3.97;1.45;;;23.20;54.40;;;;;;5090801;28;20081;-48
2022/05/23 04:41:08;;;;;;;3.85;1.48;;;23.20;54.20;;;;;;5089649;28;20028;-47
2022/05/23 04:43:35;;;;;;;6.40;1.45;;;23.10;54.00;;;;;;5089499;28;20028;-47
2022/05/23 04:46:01;;;;;;;4.53;1.38;;;23.10;54.00;;;;;;5090323;28;20042;-48
2022/05/23 04:51:12;;;;;;;3.17;1.58;;;23.10;54.20;;;;;;5088863;28;20040;-47
2022/05/23 04:53:38;;;;;;;3.47;1.10;;;23.10;54.30;;;;;;5089617;28;20082;-49
2022/05/23 04:56:06;;;;;;;2.33;1.30;;;23.10;54.50;;;;;;5089319;28;20024;-47
2022/05/23 04:58:32;;;;;;;3.35;1.20;;;23.10;54.50;;;;;;5083850;28;20071;-47
2022/05/23 05:00:59;;;;;;;2.17;1.17;;;23.10;54.60;;;;;;5091663;28;20113;-47
2022/05/23 05:03:25;;;;;;;;;;;23.10;54.70;;;;;;5090993;28;20044;-47
2022/05/23 05:05:51;;;;;;;3.33;1.15;;;23.10;54.50;;;;;;5092410;28;19916;-47
2022/05/23 05:08:17;;;;;;;3.95;1.25;;;23.20;54.40;;;;;;5094135;28;20716;-48
2022/05/23 05:10:45;;;;;;;1.88;1.00;;;23.20;54.00;;;;;;5092657;28;20036;-47
2022/05/23 05:13:10;;;;;;;;;;;23.10;53.90;;;;;;5095883;28;20058;-47
2022/05/23 05:15:37;;;;;;;2.80;1.20;;;23.10;53.90;;;;;;5093300;28;19916;-46
2022/05/23 05:18:03;;;;;;;1.80;1.15;;;23.10;54.00;;;;;;5094224;28;20050;-47
2022/05/23 05:20:29;;;;;;;2.30;0.97;;;23.10;54.20;;;;;;5095489;28;20027;-47
2022/05/23 05:22:55;;;;;;;1.92;1.00;;;23.10;54.30;;;;;;5104416;28;20020;-47
2022/05/23 05:25:21;;;;;;;2.03;1.08;;;23.10;54.40;;;;;;5099521;28;20032;-48
2022/05/23 05:27:48;;;;;;;1.75;1.05;;;23.10;54.50;;;;;;5091073;28;20020;-46
2022/05/23 05:30:19;;;;;;;1.92;1.00;;;23.10;54.60;;;;;;5092336;28;20025;-48
2022/05/23 05:33:00;;;;;;;3.38;1.00;;;23.10;54.70;;;;;;5094612;28;20024;-47
2022/05/23 05:35:40;;;;;;;2.97;1.30;;;23.10;54.70;;;;;;5090229;28;20087;-47
2022/05/23 05:38:14;;;;;;;2.55;1.00;;;23.10;54.70;;;;;;5074419;28;20032;-47
2022/05/23 05:40:40;;;;;;;2.83;0.85;;;23.10;54.30;;;;;;5095230;28;20067;-47
2022/05/23 05:43:12;;;;;;;2.85;1.10;;;23.10;54.00;;;;;;5072660;28;20025;-48
2022/05/23 05:45:42;;;;;;;2.15;0.95;;;23.10;54.00;;;;;;5087616;28;20043;-47
2022/05/23 05:48:09;;;;;;;1.52;1.17;;;23.10;54.00;;;;;;5090488;28;20055;-47
2022/05/23 05:50:36;;;;;;;2.80;1.02;;;23.10;54.10;;;;;;5094343;28;20054;-48
2022/05/23 05:53:05;;;;;;;2.78;1.15;;;23.10;54.20;;;;;;5087427;28;20033;-49
2022/05/23 05:55:31;;;;;;;4.05;1.10;;;23.10;54.30;;;;;;5075037;28;20059;-48
2022/05/23 05:57:59;;;;;;;2.67;1.40;;;23.10;54.40;;;;;;5092220;28;20043;-49
2022/05/23 06:00:25;;;;;;;2.53;1.45;;;23.10;54.40;;;;;;5083791;28;20021;-48
2022/05/23 06:02:52;;;;;;;2.63;1.20;;;23.10;54.60;;;;;;5097721;28;20051;-48
2022/05/23 06:05:18;;;;;;;2.25;1.15;;;23.10;54.50;;;;;;5093445;28;20273;-48
2022/05/23 06:13:31;;;;;;;2.10;1.55;;;23.10;54.40;;;;;;5033950;28;20033;-47
2022/05/23 06:15:57;;;;;;;2.53;1.88;;;23.00;54.40;;;;;;5035933;28;20097;-47
2022/05/23 06:18:23;;;;;;;3.25;2.20;;;23.00;54.60;;;;;;5033067;28;20037;-46
2022/05/23 06:20:52;;;;;;;3.92;2.00;;;23.00;54.40;;;;;;5033017;28;20046;-47
2022/05/23 06:23:18;;;;;;;4.18;2.47;;;23.00;54.50;;;;;;5031260;28;20458;-46
2022/05/23 06:25:46;;;;;;;3.63;2.47;;;23.00;54.60;;;;;;5031777;28;20026;-46
2022/05/23 06:28:12;;;;;;;2.38;2.17;;;23.00;54.60;;;;;;5034459;28;20041;-47
2022/05/23 06:30:38;;;;;;;2.53;1.65;;;23.00;54.50;;;;;;5031711;28;20063;-47
2022/05/23 06:33:04;;;;;;;2.67;2.47;;;23.00;54.30;;;;;;5034775;28;20026;-47
2022/05/23 06:35:30;;;;;;;3.83;2.70;;;23.00;54.60;;;;;;5030496;28;20115;-47
2022/05/23 06:37:56;;;;;;;3.25;2.95;;;23.00;54.50;;;;;;5036964;28;20100;-46
2022/05/23 06:40:23;;;;;;;3.88;3.00;;;23.00;54.50;;;;;;5031363;28;20560;-47
2022/05/23 06:42:49;;;;;;;5.05;3.28;;;23.00;54.50;;;;;;5031830;28;20090;-46
2022/05/23 06:45:15;;;;;;;3.58;3.28;;;22.90;54.50;;;;;;5031894;28;20044;-46
2022/05/23 06:47:42;;;;;;;4.15;3.78;;;23.00;54.60;;;;;;5065313;28;22040;-47
2022/05/23 06:50:09;;;;;;;3.17;2.85;;;23.00;54.70;;;;;;5086725;28;20050;-45
2022/05/23 06:52:35;;;;;;;3.65;3.10;;;23.00;54.70;;;;;;5091208;28;20077;-46
2022/05/23 06:55:01;;;;;;;2.75;2.45;;;22.90;54.40;;;;;;5090974;28;20054;-46
2022/05/23 06:57:27;;;;;;;4.93;4.05;;;23.00;54.30;;;;;;5092928;28;20078;-46
2022/05/23 06:59:54;;;;;;;4.65;4.25;;;23.00;54.50;;;;;;5089019;28;20039;-45
2022/05/23 07:02:20;;;;;;;5.70;4.07;;;22.90;54.40;;;;;;5092613;28;20753;-46
2022/05/23 07:13:00;;;;;;;7.00;6.28;;;22.90;54.50;;;;;;5092191;28;20039;-48
2022/05/23 07:15:27;;;;;;;6.32;3.55;;;22.90;54.50;;;;;;5087412;28;20032;-48
2022/05/23 07:17:53;;;;;;;4.78;4.30;;;22.90;54.60;;;;;;5089814;28;20047;-47
2022/05/23 07:20:20;;;;;;;4.77;3.70;;;22.90;54.40;;;;;;5091438;28;20035;-48
2022/05/23 07:22:46;;;;;;;6.68;4.85;;;22.90;54.20;;;;;;5092128;28;20084;-48
2022/05/23 07:25:13;;;;;;;5.90;5.40;;;22.90;54.10;;;;;;5093021;28;20968;-43
2022/05/23 07:27:39;;;;;;;7.05;4.95;;;22.90;54.30;;;;;;5092857;28;20103;-46
2022/05/23 07:30:06;;;;;;;6.10;5.50;;;22.90;54.30;;;;;;5093471;28;20032;-41
2022/05/23 07:32:32;;;;;;;8.27;5.18;;;22.90;54.30;;;;;;5092431;28;20100;-42
2022/05/23 07:34:58;;;;;;;6.50;5.80;;;22.90;54.40;;;;;;5089615;28;20031;-42
2022/05/23 07:37:24;;;;;;;6.40;5.90;;;22.90;54.40;;;;;;5089849;28;20193;-43
2022/05/23 07:39:50;;;;;;;7.95;6.22;;;22.80;54.40;;;;;;5091976;28;20035;-44
2022/05/23 07:42:17;;;;;;;6.17;5.57;;;22.90;54.60;;;;;;5089940;28;20036;-40
2022/05/23 07:44:44;;;;;;;4.63;3.90;;;22.90;54.60;;;;;;5095225;28;20279;-38
2022/05/23 07:47:10;;;;;;;3.30;3.00;;;22.90;54.30;;;;;;5091254;28;20103;-39
2022/05/23 07:49:36;;;;;;;9.07;6.50;;;22.90;54.10;;;;;;5094749;28;20024;-38
2022/05/23 07:52:03;;;;;;;8.50;6.45;;;22.90;54.40;;;;;;5093687;28;20032;-38
2022/05/23 08:02:43;;;;;;;6.30;5.10;;;22.90;54.70;;;;;;5092659;28;20081;-37
2022/05/23 08:05:09;;;;;;;7.30;5.68;;;22.90;54.90;;;;;;5095219;28;20020;-37
2022/05/23 08:07:35;;;;;;;3.50;3.17;;;22.90;54.60;;;;;;5093314;28;20570;-38
2022/05/23 08:10:01;;;;;;;5.00;4.47;;;22.90;54.30;;;;;;5094016;28;20023;-37
2022/05/23 08:12:30;;;;;;;7.10;6.25;;;22.90;54.20;;;;;;5092055;28;20054;-37
2022/05/23 08:14:57;;;;;;;11.13;7.15;;;22.90;54.30;;;;;;5089835;28;20023;-38
2022/05/23 08:17:23;;;;;;;232.70;101.17;;;22.90;54.60;;;;;;5093160;28;20055;-38
2022/05/23 08:19:49;;;;;;;144.05;67.68;;;22.90;54.70;;;;;;5088987;28;20031;-38
2022/05/23 08:22:16;;;;;;;64.50;34.40;;;22.90;54.70;;;;;;5093297;28;20036;-39
2022/05/23 08:24:42;;;;;;;429.75;194.80;;;22.80;54.70;;;;;;5094314;28;20051;-37
2022/05/23 08:27:08;;;;;;;361.27;170.05;;;22.80;54.70;;;;;;5095351;28;20032;-38
2022/05/23 08:29:35;;;;;;;312.55;135.85;;;22.80;54.80;;;;;;5091071;28;20028;-38
2022/05/23 08:32:03;;;;;;;244.77;112.35;;;22.80;54.80;;;;;;5093449;28;20039;-37
2022/05/23 08:34:31;;;;;;;236.65;107.15;;;22.80;54.80;;;;;;5078186;28;20089;-38
2022/05/23 08:36:58;;;;;;;225.32;102.65;;;22.80;54.90;;;;;;5096339;28;20043;-37
2022/05/23 08:39:25;;;;;;;199.90;92.53;;;22.80;54.90;;;;;;5093561;28;20028;-37
2022/05/23 08:41:52;;;;;;;198.57;91.80;;;22.70;54.80;;;;;;5095026;28;20043;-38
2022/05/23 08:44:23;;;;;;;187.00;89.65;;;22.80;55.00;;;;;;5093763;28;20609;-39
2022/05/23 08:47:05;;;;;;;178.05;82.07;;;22.70;55.00;;;;;;5075931;28;20492;-38
2022/05/23 08:49:35;;;;;;;188.07;84.18;;;22.70;55.00;;;;;;5080346;28;20031;-37
2022/05/23 08:52:06;;;;;;;187.02;85.43;;;22.70;55.10;;;;;;5079968;28;20063;-37
2022/05/23 08:54:45;;;;;;;166.85;81.65;;;22.70;55.10;;;;;;5095492;28;20031;-38
2022/05/23 08:57:40;;;;;;;176.32;80.22;;;22.70;55.20;;;;;;5096497;28;20052;-37
2022/05/23 09:00:11;;;;;;;163.13;76.00;;;22.70;55.30;;;;;;5096362;28;20024;-37
2022/05/23 09:02:41;;;;;;;165.55;74.82;;;22.70;55.20;;;;;;5080488;28;20032;-37
2022/05/23 09:05:19;;;;;;;165.73;75.10;;;22.70;55.30;;;;;;5108666;27;20016;-37
2022/05/23 09:07:52;;;;;;;154.13;72.82;;;22.70;55.30;;;;;;5063998;28;20024;-37
2022/05/23 09:10:33;;;;;;;149.35;71.40;;;22.70;55.30;;;;;;5094353;28;20043;-39
2022/05/23 09:13:00;;;;;;;142.18;71.50;;;22.70;55.30;;;;;;5079014;28;20042;-37
2022/05/23 09:15:26;;;;;;;144.98;71.72;;;22.70;55.40;;;;;;5092720;28;20020;-37
2022/05/23 09:17:55;;;;;;;146.60;70.25;;;22.70;55.40;;;;;;5083676;28;20059;-37
2022/05/23 09:20:45;;;;;;;149.73;70.72;;;22.70;55.30;;;;;;5063565;28;20032;-37
2022/05/23 09:23:32;;;;;;;141.23;67.75;;;22.70;55.40;;;;;;5097110;28;20032;-36
2022/05/23 09:25:59;;;;;;;147.20;67.88;;;22.70;55.40;;;;;;5102388;28;20028;-37
2022/05/23 09:28:29;;;;;;;127.75;64.88;;;22.70;55.50;;;;;;5076549;28;20457;-38
2022/05/23 09:31:01;;;;;;;129.25;64.78;;;22.70;55.50;;;;;;5097386;28;20036;-37
2022/05/23 09:33:28;;;;;;;132.70;63.50;;;22.60;55.50;;;;;;5081118;28;20032;-37
2022/05/23 09:36:07;;;;;;;134.13;64.70;;;22.70;55.50;;;;;;5081528;28;20028;-37
2022/05/23 09:38:34;;;;;;;129.00;61.20;;;22.70;55.60;;;;;;5115435;27;20039;-37
2022/05/23 09:41:00;;;;;;;125.13;62.42;;;22.70;55.60;;;;;;5094995;28;20039;-37
2022/05/23 09:49:14;;;;;;;116.90;59.72;;;22.70;55.70;;;;;;5100144;28;20058;-38
2022/05/23 09:51:57;;;;;;;115.18;57.75;;;22.60;55.70;;;;;;5095961;28;20024;-37
2022/05/23 09:54:28;;;;;;;110.95;54.90;;;22.70;55.80;;;;;;5095774;28;20086;-39
2022/05/23 09:56:55;;;;;;;111.30;56.03;;;22.60;55.80;;;;;;5090803;28;20052;-37
2022/05/23 09:59:36;;;;;;;108.57;54.90;;;22.70;55.80;;;;;;5095369;28;20028;-36
2022/05/23 10:02:15;;;;;;;103.90;51.15;;;22.60;55.80;;;;;;5105100;28;20035;-44
2022/05/23 10:04:44;;;;;;;89.03;45.33;;;22.60;56.10;;;;;;5108326;28;20496;-44
2022/05/23 10:07:23;;;;;;;90.72;45.92;;;22.70;56.40;;;;;;5099675;28;20028;-52
2022/05/23 10:09:58;;;;;;;83.97;43.22;;;22.70;56.50;;;;;;5103561;28;20025;-44
2022/05/23 10:12:24;;;;;;;76.78;37.25;;;22.70;56.50;;;;;;5098781;28;20061;-48
2022/05/23 10:14:53;;;;;;;83.90;38.95;;;22.70;56.60;;;;;;5100017;28;20751;-43
2022/05/23 10:17:29;;;;;;;81.07;38.53;;;22.70;56.70;;;;;;5109937;28;20072;-41
2022/05/23 10:20:18;;;;;;;73.45;34.25;;;22.70;56.70;;;;;;5104853;28;20020;-47
2022/05/23 10:23:03;;;;;;;74.07;31.63;;;22.70;56.80;;;;;;5096742;28;20035;-45
2022/05/23 10:25:37;;;;;;;72.35;31.60;;;22.70;57.10;;;;;;5102981;28;20028;-52
2022/05/23 10:28:20;;;;;;;71.45;31.92;;;22.70;57.20;;;;;;5090055;28;20087;-52
2022/05/23 10:31:02;;;;;;;66.70;29.27;;;22.70;57.30;;;;;;5085314;28;20774;-48
2022/05/23 10:33:28;;;;;;;70.97;26.52;;;22.70;57.30;;;;;;5083032;28;20025;-41
2022/05/23 10:36:19;;;;;;;72.93;26.42;;;22.70;57.70;;;;;;5097906;28;20047;-41
2022/05/23 10:42:13;;;;;;;60.92;24.98;;;22.70;57.70;;;;;;4985294;28;20108;-40
2022/05/23 10:45:06;;;;;;;55.25;24.15;;;22.70;58.20;;;;;;4979876;28;20527;-40
2022/05/23 10:48:00;;;;;;;52.35;23.65;;;22.70;57.50;;;;;;4999026;28;20554;-42
2022/05/23 10:50:54;;;;;;;51.53;23.63;;;22.70;57.40;;;;;;4999170;28;20046;-39
2022/05/23 10:53:31;;;;;;;58.28;23.48;;;22.70;57.30;;;;;;4982461;28;20081;-40
2022/05/23 10:56:18;;;;;;;49.45;22.83;;;22.70;57.20;;;;;;4980360;28;20038;-43
2022/05/23 10:58:57;;;;;;;56.75;24.27;;;22.70;57.20;;;;;;4982445;28;20240;-44
2022/05/23 11:01:35;;;;;;;52.13;23.40;;;22.70;57.10;;;;;;4998811;28;20045;-40
2022/05/23 11:04:12;;;;;;;54.58;23.00;;;22.70;57.10;;;;;;4998639;28;20042;-40
2022/05/23 11:06:46;;;;;;;45.90;22.23;;;22.70;57.00;;;;;;4996076;28;20034;-45
2022/05/23 11:09:22;;;;;;;50.28;23.08;;;22.70;57.00;;;;;;4996987;28;20075;-41
2022/05/23 11:11:58;;;;;;;50.05;22.40;;;22.70;57.00;;;;;;4982429;28;20030;-39
2022/05/23 11:14:46;;;;;;;45.25;21.52;;;22.70;56.90;;;;;;4982048;28;20030;-40
2022/05/23 11:17:32;;;;;;;;;;;22.70;56.90;;;;;;5100631;28;20040;-41
2022/05/23 11:20:18;;;;;;;42.67;20.70;;;22.70;56.80;;;;;;5104849;28;19908;-40
2022/05/23 11:22:49;;;;;;;47.90;21.80;;;22.70;56.70;;;;;;5083085;28;20028;-39
2022/05/23 11:25:23;;;;;;;46.78;20.67;;;22.70;56.70;;;;;;5082775;28;20032;-41
2022/05/23 11:36:09;;;;;;;42.75;19.77;;;22.70;56.70;;;;;;5100772;28;20110;-39
2022/05/23 11:38:45;;;;;;;38.53;19.35;;;22.60;56.70;;;;;;5088135;28;20050;-39
2022/05/23 11:41:31;;;;;;;38.60;19.70;;;22.60;56.70;;;;;;5088576;28;20032;-38
2022/05/23 11:43:57;;;;;;;35.80;19.10;;;22.70;56.70;;;;;;5099684;28;20031;-39
2022/05/23 11:46:28;;;;;;;38.30;18.45;;;22.60;56.60;;;;;;5085017;28;20028;-45
2022/05/23 11:49:00;;;;;;;40.58;19.77;;;22.60;56.60;;;;;;5102217;28;20055;-39
2022/05/23 11:51:36;;;;;;;32.13;18.48;;;22.60;56.60;;;;;;5080698;28;20031;-43
2022/05/23 11:54:31;;;;;;;39.47;19.48;;;22.60;56.60;;;;;;5083823;28;20032;-41
2022/05/23 11:57:00;;;;;;;34.95;17.98;;;22.60;56.60;;;;;;5098466;28;20074;-39
2022/05/23 11:59:26;;;;;;;33.17;16.65;;;22.60;56.60;;;;;;5098018;28;20032;-39
2022/05/23 12:02:11;;;;;;;42.10;19.23;;;22.60;56.60;;;;;;5101321;28;20078;-43
2022/05/23 12:04:49;;;;;;;35.72;17.58;;;22.60;56.60;;;;;;5100476;28;20454;-44
2022/05/23 12:07:37;;;;;;;33.28;17.30;;;22.60;56.60;;;;;;5102813;28;20032;-39
2022/05/23 12:10:21;;;;;;;37.95;17.13;;;22.60;56.70;;;;;;5096022;28;20024;-39
2022/05/23 12:13:09;;;;;;;36.83;16.15;;;22.60;56.60;;;;;;5102227;28;20031;-39
2022/05/23 12:15:46;;;;;;;23.75;12.18;;;22.60;56.60;;;;;;5103716;28;20028;-39
2022/05/23 12:18:23;;;;;;;34.47;16.73;;;22.60;56.70;;;;;;5106928;28;20040;-45
2022/05/23 12:20:51;;;;;;;;;;;22.60;56.70;;;;;;5107183;28;20598;-40
2022/05/23 12:23:36;;;;;;;29.52;15.45;;;22.60;56.70;;;;;;5108651;28;19908;-42
2022/05/23 12:26:25;;;;;;;32.70;16.35;;;22.60;56.70;;;;;;5103792;28;20073;-44
2022/05/23 12:29:01;;;;;;;26.67;15.40;;;22.60;56.70;;;;;;5086496;28;20031;-42
2022/05/23 12:31:28;;;;;;;28.27;14.63;;;22.60;56.70;;;;;;5120048;28;20042;-40
2022/05/23 12:34:03;;;;;;;;;;;22.60;56.80;;;;;;5091039;28;20024;-40
2022/05/23 12:36:31;;;;;;;29.33;14.82;;;22.50;56.70;;;;;;5105046;28;19923;-40
2022/05/23 12:39:21;;;;;;;30.58;16.27;;;22.50;56.80;;;;;;5106531;28;20036;-41
2022/05/23 12:41:50;;;;;;;31.27;16.00;;;22.50;56.80;;;;;;5086192;28;20016;-39
2022/05/23 12:44:34;;;;;;;27.63;15.10;;;22.50;56.80;;;;;;5102461;28;20028;-40
2022/05/23 12:47:25;;;;;;;28.63;15.05;;;22.50;56.80;;;;;;5107741;28;20115;-42
2022/05/23 12:50:11;;;;;;;29.55;14.77;;;22.50;56.90;;;;;;5102237;28;20094;-39
2022/05/23 12:52:41;;;;;;;31.55;14.48;;;22.50;56.90;;;;;;5090406;28;20020;-39
2022/05/23 12:55:30;;;;;;;26.75;14.60;;;22.50;56.90;;;;;;5098559;28;20054;-39
2022/05/23 12:58:12;;;;;;;28.83;14.55;;;22.50;56.90;;;;;;5106723;28;20047;-39
2022/05/23 13:00:52;;;;;;;26.73;13.50;;;22.50;56.90;;;;;;5079550;28;20097;-39
2022/05/23 13:03:26;;;;;;;27.27;13.95;;;22.50;56.90;;;;;;5084341;28;20078;-40
2022/05/23 13:06:19;;;;;;;25.85;12.95;;;22.50;57.00;;;;;;5091993;28;20035;-42
2022/05/23 13:09:09;;;;;;;24.85;13.05;;;22.50;57.00;;;;;;5080075;28;20024;-38
2022/05/23 13:11:44;;;;;;;25.25;13.93;;;22.50;57.00;;;;;;5103407;28;20047;-40
2022/05/23 13:14:10;;;;;;;24.27;12.20;;;22.50;57.00;;;;;;5082371;28;20017;-41
2022/05/23 13:16:38;;;;;;;22.75;12.68;;;22.50;57.00;;;;;;5100269;28;20047;-39
2022/05/23 13:22:17;;;;;;;21.63;11.98;;;22.50;57.00;;;;;;5110065;28;20035;-39
2022/05/23 13:24:49;;;;;;;25.70;13.07;;;22.50;57.10;;;;;;5111548;28;20056;-46
2022/05/23 13:27:29;;;;;;;24.20;13.02;;;22.50;57.10;;;;;;5108561;28;20020;-42
2022/05/23 13:29:59;;;;;;;20.95;11.85;;;22.50;57.10;;;;;;5106463;28;20032;-39
2022/05/23 13:32:26;;;;;;;22.00;11.18;;;22.50;57.20;;;;;;5107801;28;20088;-41
2022/05/23 13:34:52;;;;;;;21.10;10.98;;;22.50;57.20;;;;;;5105356;28;20035;-39
2022/05/23 13:37:34;;;;;;;20.87;11.30;;;22.50;57.20;;;;;;5102367;28;20047;-43
2022/05/23 13:40:14;;;;;;;18.35;11.07;;;22.50;57.30;;;;;;5068810;28;20289;-39
2022/05/23 13:42:40;;;;;;;24.55;11.40;;;22.50;57.30;;;;;;5104323;28;20023;-42
2022/05/23 13:45:13;;;;;;;18.85;10.90;;;22.50;57.30;;;;;;5102804;28;20024;-39
2022/05/23 13:47:56;;;;;;;20.35;11.20;;;22.50;57.40;;;;;;5111258;28;20651;-40
2022/05/23 13:50:33;;;;;;;17.50;10.25;;;22.50;57.40;;;;;;5090706;28;20645;-38
2022/05/23 13:53:14;;;;;;;16.90;10.03;;;22.50;57.40;;;;;;5088035;28;20139;-41
2022/05/23 13:55:44;;;;;;;21.77;11.20;;;22.50;57.50;;;;;;5109143;28;20276;-39
2022/05/23 13:58:32;;;;;;;15.85;10.35;;;22.50;57.50;;;;;;5092097;28;20112;-39
2022/05/23 14:01:02;;;;;;;15.85;10.25;;;22.50;57.50;;;;;;5106220;28;20044;-39